• Join FlightAware (Why Join?)
  • Login
  • US Flag 
12:28AM EDT


 

Airport Tracker/Info


-or-


 

Live Flight TrackerFlight Track Log ✈ N785JP ✈ 17-Oct-2013 ✈ 5B2 - KSAV

Flight Track Log - Related Links

Times and Time Zones

All times are in EDT time to prevent confusion due to time zone crossing. See the N785JP flight status page for this flight to view local times or setup timezone preferences in your user account.

Time Position Orientation Groundspeed Altitude Reporting Facility
EDT Latitude Longitude Course Direction KTS MPH feet Rate Location/Type
08:11AM 43.0375 -73.8775 242° Southwest 122 140 1,000  Level Boston Center
08:11AM 43.0308 -73.8944 242° Southwest 135 155 1,500 1,260 Climbing Boston Center
08:12AM 43.0158 -73.9422 247° West 146 168 2,600 1,440 Climbing Boston Center
08:14AM 42.9897 -74.0183 245° Southwest 120 138 5,300 1,500 Climbing Boston Center
08:15AM 42.9683 -74.0517 229° Southwest 120 138 6,700 1,260 Climbing Boston Center
08:16AM 42.9408 -74.0850 222° Southwest 125 144 7,800 1,200 Climbing Boston Center
08:17AM 42.9133 -74.1183 222° Southwest 130 150 9,200 1,200 Climbing Boston Center
08:18AM 42.8836 -74.1486 217° Southwest 138 159 10,300 1,140 Climbing Boston Center
08:19AM 42.8561 -74.1819 222° Southwest 132 152 11,500 1,140 Climbing Boston Center
08:20AM 42.8306 -74.2181 226° Southwest 132 152 12,600 1,140 Climbing Boston Center
08:21AM 42.8028 -74.2511 221° Southwest 132 152 13,900 1,200 Climbing Boston Center
08:22AM 42.7753 -74.2817 219° Southwest 132 152 15,000 900 Climbing Boston Center
08:23AM 42.7475 -74.3203 226° Southwest 137 158 15,700 480 Climbing Boston Center
08:24AM 42.7133 -74.3617 222° Southwest 152 175 16,000 120 Climbing Boston Center
08:25AM 42.6753 -74.4083 222° Southwest 177 204 16,000  Level Boston Center
08:26AM 42.6411 -74.4497 222° Southwest 187 215 16,000  Level Boston Center
08:27AM 42.5964 -74.5019 221° Southwest 192 221 16,000  Level Boston Center
08:28AM 42.5622 -74.5458 223° Southwest 197 227 16,000  Level Boston Center
08:29AM 42.5175 -74.6006 222° Southwest 197 227 16,000  Level Boston Center
08:30AM 42.4811 -74.6472 223° Southwest 197 227 16,000  Level Boston Center
08:31AM 42.4364 -74.6992 221° Southwest 197 227 16,000  Level Boston Center
08:32AM 42.4000 -74.7428 222° Southwest 197 227 16,000  Level Boston Center
08:33AM 42.3592 -74.8003 226° Southwest 197 227 16,000  Level Boston Center
08:34AM 42.3206 -74.8467 222° Southwest 197 227 16,000  Level Boston Center
08:35AM 42.2781 -74.8956 220° Southwest 197 227 16,000  Level Boston Center
08:36AM 42.2372 -74.9472 223° Southwest 197 227 16,000  Level Boston Center
08:38AM 42.1372 -75.0664 221° Southwest 199 229 16,000  Level New York Center
08:39AM 42.0958 -75.1169 222° Southwest 199 229 16,000  Level New York Center
08:40AM 42.0586 -75.1647 224° Southwest 199 229 16,000  Level New York Center
08:41AM 42.0128 -75.2175 221° Southwest 199 229 16,000  Level New York Center
08:42AM 41.9714 -75.2678 222° Southwest 199 229 16,000  Level New York Center
08:43AM 41.9300 -75.3178 222° Southwest 199 229 16,000  Level New York Center
08:44AM 41.8931 -75.3600 220° Southwest 199 229 16,000  Level New York Center
08:45AM 41.8514 -75.4100 222° Southwest 199 229 16,000  Level New York Center
08:46AM 41.8056 -75.4650 222° Southwest 199 229 16,000  Level New York Center
08:47AM 41.7642 -75.5150 222° Southwest 199 229 16,000  Level New York Center
08:48AM 41.7225 -75.5622 220° Southwest 199 229 16,000  Level New York Center
08:49AM 41.6853 -75.6067 222° Southwest 199 229 16,000  Level New York Center
08:50AM 41.6417 -75.6561 220° Southwest 199 229 16,000  Level New York Center
08:51AM 41.6022 -75.7033 222° Southwest 199 229 16,000  Level New York Center
08:52AM 41.5606 -75.7528 222° Southwest 199 229 16,000  Level New York Center
08:53AM 41.5147 -75.8050 220° Southwest 199 229 16,000  Level New York Center
08:54AM 41.4731 -75.8517 220° Southwest 199 229 16,000  Level New York Center
08:55AM 41.4314 -75.9011 222° Southwest 199 229 16,000  Level New York Center
08:56AM 41.3897 -75.9503 222° Southwest 199 229 16,000  Level New York Center
08:57AM 41.3478 -76.0025 223° Southwest 199 229 16,000  Level New York Center
08:58AM 41.3061 -76.0489 220° Southwest 199 229 16,000  Level New York Center
08:59AM 41.2622 -76.0981 220° Southwest 199 229 16,000  Level New York Center
09:00AM 41.2272 -76.1392 221° Southwest 199 229 16,000  Level New York Center
09:01AM 41.1786 -76.1961 221° Southwest 199 229 16,000  Level New York Center
09:02AM 41.1369 -76.2422 220° Southwest 199 229 16,000  Level New York Center
09:03AM 41.0953 -76.2886 220° Southwest 199 229 16,000  Level New York Center
09:04AM 41.0578 -76.3350 223° Southwest 199 229 16,000  Level New York Center
09:05AM 41.0158 -76.3811 220° Southwest 199 229 16,000  Level New York Center
09:06AM 40.9697 -76.4350 221° Southwest 199 229 16,000  Level New York Center
09:07AM 40.9300 -76.4811 221° Southwest 199 229 16,000  Level New York Center
09:08AM 40.8858 -76.5325 221° Southwest 199 229 16,000  Level New York Center
09:09AM 40.8417 -76.5808 220° Southwest 199 229 16,000  Level New York Center
09:10AM 40.8017 -76.6294 223° Southwest 199 229 16,000  Level New York Center
09:11AM 40.7578 -76.6778 220° Southwest 199 229 16,000  Level New York Center
09:12AM 40.7200 -76.7211 221° Southwest 199 229 16,000  Level New York Center
09:13AM 40.6736 -76.7744 221° Southwest 199 229 16,000  Level New York Center
09:14AM 40.6317 -76.8228 221° Southwest 199 229 16,000  Level New York Center
09:15AM 40.5939 -76.8658 221° Southwest 199 229 16,000  Level New York Center
09:16AM 40.5453 -76.9192 220° Southwest 199 229 16,000  Level New York Center
09:17AM 40.5011 -76.9697 221° Southwest 199 229 16,000  Level New York Center
09:18AM 40.4589 -77.0150 219° Southwest 199 229 16,000  Level New York Center
09:19AM 40.4147 -77.0656 221° Southwest 199 229 16,000  Level New York Center
09:20AM 40.3725 -77.1136 221° Southwest 199 229 16,000  Level New York Center
09:21AM 40.3281 -77.1611 219° Southwest 199 229 16,000  Level New York Center
09:22AM 40.2861 -77.2089 221° Southwest 199 229 16,000  Level New York Center
09:23AM 40.2417 -77.2567 219° Southwest 199 229 16,000  Level New York Center
09:24AM 40.1994 -77.3042 221° Southwest 199 229 16,000  Level New York Center
09:25AM 40.1569 -77.3547 222° Southwest 199 229 16,000  Level New York Center
09:27AM 40.0808 -77.4378 220° Southwest 203 234 16,000  Level Washington Center
09:28AM 40.0383 -77.4828 219° Southwest 208 239 16,000  Level Washington Center
09:29AM 39.9939 -77.5306 219° Southwest 208 239 16,000 480 Level Washington Center
09:30AM 39.9494 -77.5697 214° Southwest 208 239 17,000 960 Climbing Washington Center
09:31AM 39.9056 -77.5822 192° South 182 209 17,900 840 Climbing Washington Center
09:32AM 39.8594 -77.6025 199° South 177 204 18,700 720 Climbing Washington Center
09:33AM 39.8133 -77.6175 194° South 172 198 19,400 600 Climbing Washington Center
09:34AM 39.7672 -77.6350 196° South 172 198 20,000 300 Climbing Washington Center
09:35AM 39.7189 -77.6553 198° South 174 200 20,000  Level Washington Center
09:36AM 39.6644 -77.6781 198° South 188 216 20,000  Level Washington Center
09:37AM 39.6100 -77.6978 196° South 202 232 20,000  Level Washington Center
09:38AM 39.5553 -77.7206 198° South 208 239 20,000  Level Washington Center
09:39AM 39.5008 -77.7431 198° South 208 239 20,000  Level Washington Center
09:40AM 39.4461 -77.7631 196° South 208 239 20,000  Level Washington Center
09:41AM 39.3894 -77.7856 197° South 208 239 20,000  Level Washington Center
09:42AM 39.3369 -77.8053 196° South 208 239 20,000  Level Washington Center
09:43AM 39.2825 -77.8278 198° South 208 239 20,000  Level Washington Center
09:44AM 39.2300 -77.8478 196° South 208 239 20,000  Level Washington Center
09:45AM 39.1753 -77.8700 197° South 208 239 20,000  Level Washington Center
09:46AM 39.1228 -77.8897 196° South 208 239 20,000  Level Washington Center
09:47AM 39.0683 -77.9122 198° South 208 239 20,000  Level Washington Center
09:48AM 39.0136 -77.9319 196° South 208 239 20,000  Level Washington Center
09:49AM 38.9589 -77.9542 198° South 208 239 20,000  Level Washington Center
09:50AM 38.9044 -77.9736 196° South 208 239 20,000  Level Washington Center
09:51AM 38.8497 -77.9958 198° South 208 239 20,000  Level Washington Center
09:52AM 38.7950 -78.0181 198° South 208 239 20,000  Level Washington Center
09:53AM 38.7406 -78.0378 196° South 208 239 20,000  Level Washington Center
09:54AM 38.6858 -78.0572 196° South 208 239 20,000  Level Washington Center
09:55AM 38.6333 -78.0792 198° South 208 239 20,000  Level Washington Center
09:56AM 38.5786 -78.0986 196° South 208 239 20,000  Level Washington Center
09:57AM 38.5219 -78.1206 197° South 208 239 20,000  Level Washington Center
09:58AM 38.4672 -78.1428 198° South 208 239 20,000  Level Washington Center
09:59AM 38.4128 -78.1619 195° South 208 239 20,000  Level Washington Center
10:00AM 38.3558 -78.1839 197° South 208 239 20,000  Level Washington Center
10:01AM 38.3033 -78.2033 196° South 208 239 20,000  Level Washington Center
10:02AM 38.2486 -78.2250 197° South 208 239 20,000  Level Washington Center
10:03AM 38.1939 -78.2469 197° South 208 239 20,000  Level Washington Center
10:04AM 38.1392 -78.2661 195° South 208 239 20,000  Level Washington Center
10:05AM 38.0825 -78.2878 197° South 208 239 20,000  Level Washington Center
10:06AM 38.0278 -78.3069 195° South 208 239 20,000  Level Washington Center
10:07AM 37.9814 -78.3264 198° South 203 234 20,000  Level Washington Center
10:08AM 37.9269 -78.3456 196° South 203 234 20,000  Level Washington Center
10:09AM 37.8658 -78.3694 197° South 208 239 20,000  Level Washington Center
10:10AM 37.8111 -78.3911 197° South 208 239 20,000  Level Washington Center
10:11AM 37.7544 -78.4100 195° South 208 239 20,000  Level Washington Center
10:12AM 37.6997 -78.4292 195° South 208 239 20,000  Level Washington Center
10:13AM 37.6492 -78.4456 194° South 208 239 20,000  Level Washington Center
10:14AM 37.5944 -78.4669 197° South 208 239 20,000  Level Washington Center
10:15AM 37.5375 -78.4886 197° South 208 239 20,000  Level Washington Center
10:16AM 37.4831 -78.5072 195° South 208 239 20,000  Level Washington Center
10:17AM 37.4239 -78.5286 196° South 208 239 20,000  Level Washington Center
10:18AM 37.3714 -78.5475 196° South 208 239 20,000  Level Washington Center
10:19AM 37.3167 -78.5689 197° South 208 239 20,000  Level Washington Center
10:20AM 37.2619 -78.5875 195° South 208 239 20,000  Level Washington Center
10:21AM 37.2092 -78.6064 196° South 208 239 20,000  Level Washington Center
10:22AM 37.1589 -78.6253 197° South 208 239 20,000  Level Washington Center
10:23AM 37.1061 -78.6442 196° South 208 239 20,000  Level Washington Center
10:24AM 37.0536 -78.6628 196° South 208 239 20,000  Level Washington Center
10:25AM 37.0008 -78.6842 198° South 208 239 20,000  Level Washington Center
10:26AM 36.9461 -78.7053 197° South 203 234 20,000  Level Washington Center
10:27AM 36.8975 -78.7217 195° South 197 227 20,000  Level Washington Center
10:28AM 36.8469 -78.7403 196° South 190 219 20,000  Level Washington Center
10:29AM 36.7986 -78.7564 195° South 190 219 20,000  Level Washington Center
10:30AM 36.7544 -78.7728 197° South 190 219 20,000  Level Washington Center
10:31AM 36.7058 -78.7917 197° South 190 219 20,000  Level Washington Center
10:32AM 36.6572 -78.8128 199° South 190 219 20,000  Level Washington Center
10:33AM 36.6069 -78.8261 192° South 190 219 20,000  Level Washington Center
10:34AM 36.5525 -78.8267 180° South 190 219 20,000  Level Washington Center
10:35AM 36.4961 -78.8294 182° South 196 226 20,000  Level Washington Center
10:36AM 36.4436 -78.8453 194° South 201 231 20,000  Level Washington Center
10:37AM 36.3972 -78.8667 200° South 196 226 20,000  Level Washington Center
10:38AM 36.3483 -78.8981 207° Southwest 196 226 20,000  Level Washington Center
10:39AM 36.3017 -78.9244 205° Southwest 196 226 20,000  Level Washington Center
10:40AM 36.2528 -78.9533 205° Southwest 196 226 20,000  Level Washington Center
10:41AM 36.2061 -78.9822 207° Southwest 196 226 20,000  Level Washington Center
10:42AM 36.1553 -79.0083 203° Southwest 196 226 20,000  Level Washington Center
10:43AM 36.1064 -79.0369 205° Southwest 196 226 20,000  Level Washington Center
10:44AM 36.0492 -79.0706 205° Southwest 196 226 20,000  Level Washington Center
10:45AM 35.9983 -79.0992 204° Southwest 201 231 20,000  Level Washington Center
10:46AM 35.9494 -79.1278 205° Southwest 201 231 20,000  Level Washington Center
10:47AM 35.8983 -79.1586 206° Southwest 196 226 20,000  Level Washington Center
10:48AM 35.8456 -79.1872 204° Southwest 196 226 20,000  Level Washington Center
10:49AM 35.7944 -79.2156 204° Southwest 196 226 20,000  Level Washington Center
10:50AM 35.7436 -79.2464 206° Southwest 201 231 20,000  Level Washington Center
10:51AM 35.6906 -79.2722 202° Southwest 201 231 20,000  Level Washington Center
10:52AM 35.6394 -79.3031 206° Southwest 201 231 20,000  Level Washington Center
10:53AM 35.5844 -79.3261 199° South 201 231 20,000  Level Washington Center
10:54AM 35.5406 -79.3317 186° South 201 231 20,000  Level Washington Center
10:55AM 35.4789 -79.3694 207° Southwest 206 237 20,000  Level Washington Center
10:56AM 35.4322 -79.3953 204° Southwest 211 243 20,000  Level Washington Center
10:57AM 35.3725 -79.4283 204° Southwest 216 249 20,000  Level Washington Center
10:58AM 35.3217 -79.4589 206° Southwest 216 249 20,000  Level Washington Center
10:59AM 35.2686 -79.4869 203° Southwest 216 249 20,000  Level Washington Center
11:00AM 35.2175 -79.5150 204° Southwest 216 249 20,000  Level Washington Center
11:01AM 35.1664 -79.5456 206° Southwest 211 243 20,000  Level Washington Center
11:03AM 35.0494 -79.6117 205° Southwest 201 231 20,000  Level Jacksonville Center
11:04AM 34.9981 -79.6414 205° Southwest 201 231 20,000  Level Jacksonville Center
11:05AM 34.9467 -79.6686 203° Southwest 206 237 20,000  Level Jacksonville Center
11:06AM 34.8933 -79.6986 205° Southwest 206 237 20,000  Level Jacksonville Center
11:07AM 34.8419 -79.7283 205° Southwest 206 237 20,000  Level Jacksonville Center
11:08AM 34.7925 -79.7581 206° Southwest 206 237 20,000  Level Jacksonville Center
11:09AM 34.7389 -79.7850 202° Southwest 212 244 20,000  Level Jacksonville Center
11:10AM 34.6878 -79.8172 207° Southwest 212 244 20,000  Level Jacksonville Center
11:11AM 34.6361 -79.8444 203° Southwest 207 238 20,000  Level Jacksonville Center
11:12AM 34.5847 -79.8739 205° Southwest 207 238 20,000  Level Jacksonville Center
11:13AM 34.5292 -79.9036 204° Southwest 217 250 20,000  Level Jacksonville Center
11:14AM 34.4797 -79.9306 204° Southwest 210 242 20,000  Level Jacksonville Center
11:15AM 34.4283 -79.9600 205° Southwest 210 242 20,000  Level Jacksonville Center
11:16AM 34.3767 -79.9894 205° Southwest 215 247 20,000  Level Jacksonville Center
11:17AM 34.3233 -80.0189 205° Southwest 215 247 20,000  Level Jacksonville Center
11:18AM 34.2697 -80.0481 204° Southwest 215 247 20,000  Level Jacksonville Center
11:19AM 34.2161 -80.0775 204° Southwest 215 247 20,000  Level Jacksonville Center
11:20AM 34.1644 -80.1044 203° Southwest 215 247 20,000  Level Jacksonville Center
11:21AM 34.1111 -80.1386 208° Southwest 215 247 20,000  Level Jacksonville Center
11:22AM 34.0572 -80.1653 202° Southwest 215 247 20,000  Level Jacksonville Center
11:23AM 34.0058 -80.1969 207° Southwest 215 247 20,000  Level Jacksonville Center
11:24AM 33.9522 -80.2264 204° Southwest 215 247 20,000  Level Jacksonville Center
11:25AM 33.8986 -80.2556 204° Southwest 215 247 20,000  Level Jacksonville Center
11:26AM 33.8450 -80.2844 204° Southwest 215 247 20,000  Level Jacksonville Center
11:27AM 33.7914 -80.3136 204° Southwest 215 247 20,000  Level Jacksonville Center
11:28AM 33.7375 -80.3428 204° Southwest 215 247 20,000  Level Jacksonville Center
11:29AM 33.6839 -80.3717 204° Southwest 215 247 20,000 -240 Level Jacksonville Center
11:30AM 33.6303 -80.4031 206° Southwest 215 247 19,600 -360 Descending Jacksonville Center
11:31AM 33.5703 -80.4322 202° Southwest 215 247 19,300 -420 Descending Jacksonville Center
11:32AM 33.5147 -80.4636 205° Southwest 215 247 18,800 -480 Descending Jacksonville Center
11:33AM 33.4567 -80.4953 204° Southwest 220 253 18,400 -480 Descending Jacksonville Center
11:34AM 33.3989 -80.5267 204° Southwest 225 259 17,900 -480 Descending Jacksonville Center
11:35AM 33.3411 -80.5581 204° Southwest 225 259 17,500 -480 Descending Jacksonville Center
11:36AM 33.2833 -80.5892 204° Southwest 230 265 17,000 -540 Descending Jacksonville Center
11:37AM 33.2275 -80.6206 205° Southwest 230 265 16,500 -480 Descending Jacksonville Center
11:38AM 33.1675 -80.6517 203° Southwest 230 265 16,100 -300 Descending Jacksonville Center
11:39AM 33.1117 -80.6806 203° Southwest 230 265 16,000 -240 Descending Jacksonville Center
11:40AM 33.0558 -80.7117 205° Southwest 230 265 15,700 -600 Descending Jacksonville Center
11:41AM 32.9978 -80.7428 204° Southwest 230 265 14,800 -780 Descending Jacksonville Center
11:42AM 32.9378 -80.7739 204° Southwest 230 265 14,200 -780 Descending Jacksonville Center
11:43AM 32.8758 -80.8075 205° Southwest 230 265 13,300 -900 Descending Jacksonville Center
11:44AM 32.8139 -80.8411 205° Southwest 235 270 12,500 -780 Descending Jacksonville Center
11:45AM 32.7536 -80.8719 203° Southwest 235 270 11,800 -720 Descending Jacksonville Center
11:46AM 32.6936 -80.9056 205° Southwest 235 270 11,100 -780 Descending Jacksonville Center
11:47AM 32.6358 -80.9364 204° Southwest 235 270 10,300 -780 Descending Jacksonville Center
11:48AM 32.5800 -80.9672 205° Southwest 235 270 9,600 -720 Descending Jacksonville Center
11:50AM 32.4894 -81.0106 220° Southwest  Level FlightAware Approximate
11:57AM 32.1317 -81.1850 220° Southwest  Level FlightAware Approximate
11:58AM 32.1167 -81.2000 220° Southwest  Level FlightAware Approximate
11:59AM 32.1276 -81.2021 220° Southwest  Level Estimated
12:00PM 32.1276 -81.2021 220° Southwest  Level Estimated
12:01PM 32.1276 -81.2021 220° Southwest  Level Estimated
12:02PM 32.1276 -81.2021 220° Southwest  Level Estimated
12:03PM 32.1276 -81.2021 220° Southwest  Level Estimated
12:04PM 32.1276 -81.2021 220° Southwest  Level Estimated
12:05PM 32.1276 -81.2021 220° Southwest  Level Estimated
12:06PM 32.1276 -81.2021 220° Southwest  Level Estimated
12:07PM 32.1276 -81.2021 220° Southwest  Level Estimated
12:08PM 32.1276 -81.2021 220° Southwest  Level Estimated
12:09PM 32.1276 -81.2021 220° Southwest  Level Estimated
12:10PM 32.1276 -81.2021 220° Southwest  Level Estimated